Time;durP1;ratioP1;P1;durP2;ratioP2;P2;SDS_P1;SDS_P2;PMS_P1;PMS_P2;Temp;Humidity;BMP_temperature;BMP_pressure;BME280_temperature;BME280_humidity;BME280_pressure;Samples;Min_cycle;Max_cycle;Signal;HPM_P1;HPM_P2
2021/03/14 00:02:09;;;;;;;;;;;;;;;-144.34;100.00;60189.88;5034942;28;19931;-81
2021/03/14 00:04:34;;;;;;;;;;;;;;;-144.34;100.00;60189.88;5036452;28;20381;-79
2021/03/14 00:07:00;;;;;;;;;;;;;;;-144.34;100.00;60189.88;5035976;28;19916;-80
2021/03/14 00:09:25;;;;;;;;;;;;;;;-144.34;100.00;60189.88;5037074;28;20017;-80
2021/03/14 00:11:51;;;;;;;;;;;;;;;-144.34;100.00;60189.88;5052390;28;19999;-80
2021/03/14 00:14:16;;;;;;;;;;;;;;;-144.34;100.00;60189.88;5052687;28;19923;-80
2021/03/14 00:16:42;;;;;;;;;;;;;;;-144.34;100.00;60189.88;5037056;28;19921;-79
2021/03/14 00:19:07;;;;;;;;;;;;;;;-144.34;100.00;60189.88;5019688;28;19948;-80
2021/03/14 00:21:32;;;;;;;;;;;;;;;-144.34;100.00;60189.88;5032022;28;19913;-80
2021/03/14 00:23:58;;;;;;;;;;;;;;;-144.34;100.00;60189.88;5052854;28;19924;-79
2021/03/14 00:26:23;;;;;;;;;;;;;;;-144.34;100.00;60189.88;5054322;28;19912;-80
2021/03/14 00:28:48;;;;;;;;;;;;;;;-144.34;100.00;60189.88;5051119;28;19920;-78
2021/03/14 00:31:14;;;;;;;;;;;;;;;-144.34;100.00;60189.88;5055206;28;19921;-80
2021/03/14 00:33:39;;;;;;;;;;;;;;;-144.34;100.00;60189.88;5051310;28;19917;-78
2021/03/14 00:36:05;;;;;;;;;;;;;;;-144.34;100.00;60189.88;5050714;28;20477;-79
2021/03/14 00:38:30;;;;;;;;;;;;;;;-144.34;100.00;60189.88;5051670;28;19921;-78
2021/03/14 00:40:55;;;;;;;;;;;;;;;-144.34;100.00;60189.88;5037747;28;19916;-79
2021/03/14 00:43:21;;;;;;;;;;;;;;;-144.34;100.00;60189.88;5034399;28;20007;-79
2021/03/14 00:45:46;;;;;;;;;;;;;;;-144.34;100.00;60189.88;5035248;28;19916;-79
2021/03/14 00:48:11;;;;;;;;;;;;;;;-144.34;100.00;60189.88;5021982;28;20429;-80
2021/03/14 00:50:38;;;;;;;;;;;;;;;-144.34;100.00;60189.88;5033863;28;19921;-80
2021/03/14 00:53:03;;;;;;;;;;;;;;;-144.34;100.00;60189.88;5034385;28;19917;-79
2021/03/14 00:55:29;;;;;;;;;;;;;;;-144.34;100.00;60189.88;5014280;28;19996;-78
2021/03/14 00:57:54;;;;;;;;;;;;;;;-144.34;100.00;60189.88;5015519;28;19925;-79
2021/03/14 01:00:20;;;;;;;;;;;;;;;-144.34;100.00;60189.88;5015543;28;19917;-79
2021/03/14 01:02:45;;;;;;;;;;;;;;;-144.34;100.00;60189.88;5032695;28;19916;-79
2021/03/14 01:05:11;;;;;;;;;;;;;;;-144.34;100.00;60189.88;5033005;28;19917;-80
2021/03/14 01:07:36;;;;;;;;;;;;;;;-144.34;100.00;60189.88;5031882;28;19959;-80
2021/03/14 01:10:02;;;;;;;;;;;;;;;-144.34;100.00;60189.88;5033438;28;19975;-79
2021/03/14 01:12:27;;;;;;;;;;;;;;;-144.34;100.00;60189.88;4989584;28;19916;-78
2021/03/14 01:14:52;;;;;;;;;;;;;;;-144.34;100.00;60189.88;5031532;28;20488;-79
2021/03/14 01:17:18;;;;;;;;;;;;;;;-144.34;100.00;60189.88;5013947;28;19993;-80
2021/03/14 01:19:43;;;;;;;;;;;;;;;-144.34;100.00;60189.88;4998978;28;20012;-79
2021/03/14 01:22:08;;;;;;;;;;;;;;;-144.34;100.00;60189.88;5013804;28;19931;-79
2021/03/14 01:24:34;;;;;;;;;;;;;;;-144.34;100.00;60189.88;5013396;28;19917;-79
2021/03/14 01:26:59;;;;;;;;;;;;;;;-144.34;100.00;60189.88;5013380;28;20378;-80
2021/03/14 01:29:25;;;;;;;;;;;;;;;-144.34;100.00;60189.88;5031360;28;20451;-78
2021/03/14 01:31:50;;;;;;;;;;;;;;;-144.34;100.00;60189.88;5010108;28;20000;-78
2021/03/14 01:34:15;;;;;;;;;;;;;;;-144.34;100.00;60189.88;5006729;28;19917;-78
2021/03/14 01:36:41;;;;;;;;;;;;;;;-144.34;100.00;60189.88;4988102;28;19926;-78
2021/03/14 01:39:06;;;;;;;;;;;;;;;-144.34;100.00;60189.88;4991275;28;19940;-79
2021/03/14 01:41:31;;;;;;;;;;;;;;;-144.34;100.00;60189.88;5031685;28;20016;-80
2021/03/14 01:43:58;;;;;;;;;;;;;;;-144.34;100.00;60189.88;4988955;28;19959;-80
2021/03/14 01:46:23;;;;;;;;;;;;;;;-144.34;100.00;60189.88;4990288;28;19917;-79
2021/03/14 01:48:49;;;;;;;;;;;;;;;-144.34;100.00;60189.88;5023818;28;19920;-78
2021/03/14 01:51:14;;;;;;;;;;;;;;;-144.34;100.00;60189.88;5010117;28;19954;-79
2021/03/14 01:53:39;;;;;;;;;;;;;;;-144.34;100.00;60189.88;5049064;28;19956;-79
2021/03/14 01:56:05;;;;;;;;;;;;;;;-144.34;100.00;60189.88;5048392;28;19928;-78
2021/03/14 01:58:30;;;;;;;;;;;;;;;-144.34;100.00;60189.88;5032343;28;20017;-79
2021/03/14 02:00:56;;;;;;;;;;;;;;;-144.34;100.00;60189.88;5047539;28;19917;-79
2021/03/14 02:03:25;;;;;;;;;;;;;;;-144.34;100.00;60189.88;5051286;28;19943;-79
2021/03/14 02:05:50;;;;;;;;;;;;;;;-144.34;100.00;60189.88;5050694;28;19921;-77
2021/03/14 02:08:16;;;;;;;;;;;;;;;-144.34;100.00;60189.88;5047400;28;19932;-78
2021/03/14 02:10:41;;;;;;;;;;;;;;;-144.34;100.00;60189.88;5033823;28;19917;-78
2021/03/14 02:13:08;;;;;;;;;;;;;;;-144.34;100.00;60189.88;5031577;28;20570;-79
2021/03/14 02:15:38;;;;;;;;;;;;;;;-144.34;100.00;60189.88;5034374;28;20011;-79
2021/03/14 02:18:04;;;;;;;;;;;;;;;-144.34;100.00;60189.88;5035497;28;19921;-79
2021/03/14 02:20:30;;;;;;;;;;;;;;;-144.34;100.00;60189.88;5052995;28;19977;-78
2021/03/14 02:23:12;;;;;;;;;;;;;;;-144.34;100.00;60189.88;5035902;28;20133;-80
2021/03/14 02:25:45;;;;;;;;;;;;;;;-144.34;100.00;60189.88;5040188;28;19916;-80
2021/03/14 02:28:10;;;;;;;;;;;;;;;-144.34;100.00;60189.88;5019273;28;19975;-80
2021/03/14 02:30:35;;;;;;;;;;;;;;;-144.34;100.00;60189.88;5035811;28;19912;-80
2021/03/14 02:33:01;;;;;;;;;;;;;;;-144.34;100.00;60189.88;5054389;28;19992;-79
2021/03/14 02:35:26;;;;;;;;;;;;;;;-144.34;100.00;60189.88;5035342;28;19976;-80
2021/03/14 02:37:52;;;;;;;;;;;;;;;-144.34;100.00;60189.88;5039379;28;19917;-79
2021/03/14 02:40:18;;;;;;;;;;;;;;;-144.34;100.00;60189.88;5053413;28;19951;-79
2021/03/14 02:42:43;;;;;;;;;;;;;;;-144.34;100.00;60189.88;5021792;28;20035;-79
2021/03/14 02:45:09;;;;;;;;;;;;;;;-144.34;100.00;60189.88;5036970;28;19921;-79
2021/03/14 02:47:35;;;;;;;;;;;;;;;-144.34;100.00;60189.88;5037605;28;19921;-79
2021/03/14 02:50:01;;;;;;;;;;;;;;;-144.34;100.00;60189.88;5050200;28;20007;-80
2021/03/14 02:52:26;;;;;;;;;;;;;;;-144.34;100.00;60189.88;5053809;28;19927;-79
2021/03/14 02:54:52;;;;;;;;;;;;;;;-144.34;100.00;60189.88;5036439;28;19927;-78
2021/03/14 02:57:21;;;;;;;;;;;;;;;-144.34;100.00;60189.88;5028745;28;19925;-78
2021/03/14 02:59:48;;;;;;;;;;;;;;;-144.34;100.00;60189.88;5052189;28;20366;-80
2021/03/14 03:02:13;;;;;;;;;;;;;;;-144.34;100.00;60189.88;5029648;28;19962;-78
2021/03/14 03:04:38;;;;;;;;;;;;;;;-144.34;100.00;60189.88;5029850;28;20305;-80
2021/03/14 03:07:04;;;;;;;;;;;;;;;-144.34;100.00;60189.88;5053456;28;19928;-78
2021/03/14 03:09:29;;;;;;;;;;;;;;;-144.34;100.00;60189.88;5036525;28;20538;-78
2021/03/14 03:11:55;;;;;;;;;;;;;;;-144.34;100.00;60189.88;5020408;28;19943;-80
2021/03/14 03:14:22;;;;;;;;;;;;;;;-144.34;100.00;60189.88;5056574;28;20841;-79
2021/03/14 03:16:49;;;;;;;;;;;;;;;-144.34;100.00;60189.88;5049508;28;19916;-78
2021/03/14 03:19:15;;;;;;;;;;;;;;;-144.34;100.00;60189.88;5036225;28;19916;-79
2021/03/14 03:21:40;;;;;;;;;;;;;;;-144.34;100.00;60189.88;5035977;28;20030;-78
2021/03/14 03:24:06;;;;;;;;;;;;;;;-144.34;100.00;60189.88;5031795;28;19932;-80
2021/03/14 03:26:32;;;;;;;;;;;;;;;-144.34;100.00;60189.88;5054597;28;20387;-80
2021/03/14 03:28:57;;;;;;;;;;;;;;;-144.34;100.00;60189.88;5038316;28;20071;-80
2021/03/14 03:31:23;;;;;;;;;;;;;;;-144.34;100.00;60189.88;5059204;28;20255;-80
2021/03/14 03:33:48;;;;;;;;;;;;;;;-144.34;100.00;60189.88;5037577;28;19924;-80
2021/03/14 03:36:14;;;;;;;;;;;;;;;-144.34;100.00;60189.88;5057670;28;19921;-80
2021/03/14 03:38:39;;;;;;;;;;;;;;;-144.34;100.00;60189.88;5035198;28;20309;-80
2021/03/14 03:41:04;;;;;;;;;;;;;;;-144.34;100.00;60189.88;5055418;28;19975;-80
2021/03/14 03:43:30;;;;;;;;;;;;;;;-144.34;100.00;60189.88;5040010;28;20321;-80
2021/03/14 03:45:56;;;;;;;;;;;;;;;-144.34;100.00;60189.88;5057380;28;19912;-81
2021/03/14 03:48:23;;;;;;;;;;;;;;;-144.34;100.00;60189.88;5056440;28;19920;-80
2021/03/14 03:50:49;;;;;;;;;;;;;;;-144.34;100.00;60189.88;5037976;28;20773;-80
2021/03/14 03:53:14;;;;;;;;;;;;;;;-144.34;100.00;60189.88;5024095;28;20501;-80
2021/03/14 03:55:40;;;;;;;;;;;;;;;-144.34;100.00;60189.88;5036830;28;19923;-80
2021/03/14 03:58:05;;;;;;;;;;;;;;;-144.34;100.00;60189.88;5037743;28;19999;-79
2021/03/14 04:00:30;;;;;;;;;;;;;;;-144.34;100.00;60189.88;5053934;28;20351;-80
2021/03/14 04:02:58;;;;;;;;;;;;;;;-144.34;100.00;60189.88;5036734;28;19924;-79
2021/03/14 04:05:23;;;;;;;;;;;;;;;-144.34;100.00;60189.88;5054199;28;20050;-80
2021/03/14 04:07:49;;;;;;;;;;;;;;;-144.34;100.00;60189.88;5037137;28;20053;-80
2021/03/14 04:10:18;;;;;;;;;;;;;;;-144.34;100.00;60189.88;5056784;28;19923;-78
2021/03/14 04:12:43;;;;;;;;;;;;;;;-144.34;100.00;60189.88;5020701;28;19923;-79
2021/03/14 04:15:10;;;;;;;;;;;;;;;-144.34;100.00;60189.88;5027262;28;19917;-80
2021/03/14 04:17:36;;;;;;;;;;;;;;;-144.34;100.00;60189.88;5035843;28;19920;-80
2021/03/14 04:20:02;;;;;;;;;;;;;;;-144.34;100.00;60189.88;5051059;28;19995;-80
2021/03/14 04:22:28;;;;;;;;;;;;;;;-144.34;100.00;60189.88;5052902;28;19932;-80
2021/03/14 04:24:54;;;;;;;;;;;;;;;-144.34;100.00;60189.88;5028044;28;19917;-80
2021/03/14 04:27:19;;;;;;;;;;;;;;;-144.34;100.00;60189.88;5035674;28;20007;-80
2021/03/14 04:29:44;;;;;;;;;;;;;;;-144.34;100.00;60189.88;5018139;28;19976;-80
2021/03/14 04:32:10;;;;;;;;;;;;;;;-144.34;100.00;60189.88;5029067;28;19916;-80
2021/03/14 04:34:36;;;;;;;;;;;;;;;-144.34;100.00;60189.88;5036527;28;19916;-79
2021/03/14 04:37:01;;;;;;;;;;;;;;;-144.34;100.00;60189.88;5051841;28;19924;-79
2021/03/14 04:39:26;;;;;;;;;;;;;;;-144.34;100.00;60189.88;5052474;28;19920;-80
2021/03/14 04:41:52;;;;;;;;;;;;;;;-144.34;100.00;60189.88;5036839;28;20551;-80
2021/03/14 04:44:17;;;;;;;;;;;;;;;-144.34;100.00;60189.88;5035336;28;20359;-80
2021/03/14 04:46:43;;;;;;;;;;;;;;;-144.34;100.00;60189.88;5051715;28;20304;-79
2021/03/14 04:49:09;;;;;;;;;;;;;;;-144.34;100.00;60189.88;5034719;28;19925;-80
2021/03/14 04:51:36;;;;;;;;;;;;;;;-144.34;100.00;60189.88;5018477;28;19963;-80
2021/03/14 04:54:01;;;;;;;;;;;;;;;-144.34;100.00;60189.88;5051748;28;19916;-79
2021/03/14 04:56:27;;;;;;;;;;;;;;;-144.34;100.00;60189.88;5051651;28;20283;-80
2021/03/14 04:58:55;;;;;;;;;;;;;;;-144.34;100.00;60189.88;5032121;28;19948;-79
2021/03/14 05:01:21;;;;;;;;;;;;;;;-144.34;100.00;60189.88;5050626;28;19925;-79
2021/03/14 05:03:47;;;;;;;;;;;;;;;-144.34;100.00;60189.88;5035664;28;20336;-79
2021/03/14 05:06:14;;;;;;;;;;;;;;;-144.34;100.00;60189.88;5048531;28;19959;-78
2021/03/14 05:08:41;;;;;;;;;;;;;;;-144.34;100.00;60189.88;5048079;28;20283;-80
2021/03/14 05:11:06;;;;;;;;;;;;;;;-144.34;100.00;60189.88;5051902;28;19982;-80
2021/03/14 05:13:32;;;;;;;;;;;;;;;-144.34;100.00;60189.88;5031441;28;19916;-79
2021/03/14 05:15:57;;;;;;;;;;;;;;;-144.34;100.00;60189.88;5050971;28;19969;-80
2021/03/14 05:18:22;;;;;;;;;;;;;;;-144.34;100.00;60189.88;5033828;28;20458;-80
2021/03/14 05:20:48;;;;;;;;;;;;;;;-144.34;100.00;60189.88;5049893;28;20680;-80
2021/03/14 05:23:13;;;;;;;;;;;;;;;-144.34;100.00;60189.88;5039751;28;19917;-80
2021/03/14 05:25:39;;;;;;;;;;;;;;;-144.34;100.00;60189.88;5033988;28;20014;-80
2021/03/14 05:28:04;;;;;;;;;;;;;;;-144.34;100.00;60189.88;5027201;28;19923;-80
2021/03/14 05:30:31;;;;;;;;;;;;;;;-144.34;100.00;60189.88;5030971;28;19921;-79
2021/03/14 05:32:57;;;;;;;;;;;;;;;-144.34;100.00;60189.88;5034003;28;19916;-80
2021/03/14 05:35:23;;;;;;;;;;;;;;;-144.34;100.00;60189.88;5032398;28;20052;-79
2021/03/14 05:37:49;;;;;;;;;;;;;;;-144.34;100.00;60189.88;5018553;28;20422;-81
2021/03/14 05:40:15;;;;;;;;;;;;;;;-144.34;100.00;60189.88;5049128;28;20043;-81
2021/03/14 05:42:40;;;;;;;;;;;;;;;-144.34;100.00;60189.88;5050765;28;19919;-80
2021/03/14 05:45:07;;;;;;;;;;;;;;;-144.34;100.00;60189.88;5048646;28;19921;-80
2021/03/14 05:47:32;;;;;;;;;;;;;;;-144.34;100.00;60189.88;5030674;28;19990;-80
2021/03/14 05:49:58;;;;;;;;;;;;;;;-144.34;100.00;60189.88;5034764;28;20436;-81
2021/03/14 05:52:23;;;;;;;;;;;;;;;-144.34;100.00;60189.88;5037253;28;19913;-79
2021/03/14 05:54:50;;;;;;;;;;;;;;;-144.34;100.00;60189.88;5037571;28;20440;-79
2021/03/14 05:57:16;;;;;;;;;;;;;;;-144.34;100.00;60189.88;5037619;28;20019;-80
2021/03/14 05:59:41;;;;;;;;;;;;;;;-144.34;100.00;60189.88;5055228;28;20330;-80
2021/03/14 06:02:07;;;;;;;;;;;;;;;-144.34;100.00;60189.88;5055875;28;19956;-81
2021/03/14 06:04:32;;;;;;;;;;;;;;;-144.34;100.00;60189.88;5030316;28;20003;-79
2021/03/14 06:06:57;;;;;;;;;;;;;;;-144.34;100.00;60189.88;5036777;28;20194;-80
2021/03/14 06:09:23;;;;;;;;;;;;;;;-144.34;100.00;60189.88;5052241;28;19921;-80
2021/03/14 06:11:48;;;;;;;;;;;;;;;-144.34;100.00;60189.88;5034133;28;20401;-80
2021/03/14 06:14:14;;;;;;;;;;;;;;;-144.34;100.00;60189.88;5034541;28;19928;-80
2021/03/14 06:16:39;;;;;;;;;;;;;;;-144.34;100.00;60189.88;5051182;28;19931;-79
2021/03/14 06:19:05;;;;;;;;;;;;;;;-144.34;100.00;60189.88;5036350;28;20003;-79
2021/03/14 06:21:31;;;;;;;;;;;;;;;-144.34;100.00;60189.88;5052364;28;19917;-78
2021/03/14 06:24:06;;;;;;;;;;;;;;;-144.34;100.00;60189.88;5054132;28;20374;-80
2021/03/14 06:26:36;;;;;;;;;;;;;;;-144.34;100.00;60189.88;5039553;28;19939;-80
2021/03/14 06:29:17;;;;;;;;;;;;;;;-144.34;100.00;60189.88;5035718;28;19912;-78
2021/03/14 06:31:59;;;;;;;;;;;;;;;-144.34;100.00;60189.88;5035905;28;20444;-79
2021/03/14 06:34:24;;;;;;;;;;;;;;;-144.34;100.00;60189.88;5055728;28;19931;-80
2021/03/14 06:36:49;;;;;;;;;;;;;;;-144.34;100.00;60189.88;5053888;28;19943;-80
2021/03/14 06:39:25;;;;;;;;;;;;;;;-144.34;100.00;60189.88;5034904;28;20412;-79
2021/03/14 06:41:50;;;;;;;;;;;;;;;-144.34;100.00;60189.88;5033961;28;19920;-79
2021/03/14 06:44:23;;;;;;;;;;;;;;;-144.34;100.00;60189.88;5040676;28;19919;-79
2021/03/14 06:46:48;;;;;;;;;;;;;;;-144.34;100.00;60189.88;5055324;28;19971;-79
2021/03/14 06:49:17;;;;;;;;;;;;;;;-144.34;100.00;60189.88;5035064;28;19952;-80
2021/03/14 06:51:44;;;;;;;;;;;;;;;-144.34;100.00;60189.88;5050157;28;20290;-79
2021/03/14 06:54:15;;;;;;;;;;;;;;;-144.34;100.00;60189.88;5029228;28;19920;-79
2021/03/14 06:56:41;;;;;;;;;;;;;;;-144.34;100.00;60189.88;5052776;28;20378;-79
2021/03/14 07:00:12;;;;;;;;;;;;;;;4.52;100.00;98036.56;5079481;27;19953;-81
2021/03/14 07:02:38;;;;;;;;;;;;;;;4.60;100.00;98038.94;5079679;28;19920;-80
2021/03/14 07:05:04;;;;;;;;;;;;;;;4.60;100.00;98044.88;5081521;28;20519;-80
2021/03/14 07:07:32;;;;;;;;;;;;;;;4.58;100.00;98051.75;5078754;28;19917;-80
2021/03/14 07:10:02;;;;;;;;;;;;;;;4.61;100.00;98055.94;5079463;28;19923;-81
2021/03/14 07:12:32;;;;;;;;;;;;;;;4.84;98.63;98070.69;5079597;28;19971;-80
2021/03/14 07:14:57;;;;;;;;;;;;;;;5.13;97.73;98064.00;5078870;28;19921;-82
2021/03/14 07:17:30;;;;;;;;;;;;;;;4.96;97.79;98083.13;5081267;28;20476;-80
2021/03/14 07:19:56;;;;;;;;;;;;;;;5.00;97.21;98081.34;5079039;28;19932;-80
2021/03/14 07:22:22;;;;;;;;;;;;;;;5.24;95.96;98087.56;5079556;28;19927;-81
2021/03/14 07:24:47;;;;;;;;;;;;;;;4.98;97.17;98089.03;5073439;28;19912;-80
2021/03/14 07:27:13;;;;;;;;;;;;;;;4.84;98.54;98091.09;5079686;28;19923;-79
2021/03/14 07:29:39;;;;;;;;;;;;;;;5.13;97.19;98094.63;5080535;28;19916;-81
2021/03/14 07:32:06;;;;;;;;;;;;;;;5.16;96.87;98099.69;5079204;28;19922;-81
2021/03/14 07:34:32;;;;;;;;;;;;;;;5.05;97.56;98104.22;5080870;28;19920;-81
2021/03/14 07:36:57;;;;;;;;;;;;;;;5.27;97.51;98109.59;5081094;28;19912;-80
2021/03/14 07:39:22;;;;;;;;;;;;;;;5.21;98.28;98118.28;5066451;28;19920;-79
2021/03/14 07:41:48;;;;;;;;;;;;;;;4.85;98.25;98125.91;5078768;28;19939;-81
2021/03/14 07:44:14;;;;;;;;;;;;;;;5.32;97.00;98115.47;5062126;28;19967;-81
2021/03/14 07:46:41;;;;;;;;;;;;;;;4.99;98.13;98118.78;5079630;28;20049;-80
2021/03/14 07:49:06;;;;;;;;;;;;;;;5.13;97.85;98120.16;5078659;28;19913;-81
2021/03/14 07:51:32;;;;;;;;;;;;;;;5.33;96.95;98125.63;5078693;28;19990;-80
2021/03/14 07:54:04;;;;;;;;;;;;;;;5.40;97.39;98132.25;5077833;28;19958;-81
2021/03/14 07:56:34;;;;;;;;;;;;;;;5.82;95.14;98137.13;5080264;28;19920;-80
2021/03/14 07:58:59;;;;;;;;;;;;;;;5.27;95.74;98147.91;5079110;28;20404;-81
2021/03/14 08:01:25;;;;;;;;;;;;;;;5.40;96.39;98145.00;5080731;28;19916;-80
2021/03/14 08:03:52;;;;;;;;;;;;;;;5.19;95.77;98150.66;5080469;28;20622;-80
2021/03/14 08:06:17;;;;;;;;;;;;;;;5.69;95.72;98156.22;5073327;28;19943;-81
2021/03/14 08:08:43;;;;;;;;;;;;;;;5.63;94.19;98159.78;5076074;28;20313;-82
2021/03/14 08:11:29;;;;;;;;;;;;;;;6.10;94.15;98167.09;5067165;28;19920;-81
2021/03/14 08:13:55;;;;;;;;;;;;;;;5.39;95.10;98170.59;5064771;28;19925;-81
2021/03/14 08:16:20;;;;;;;;;;;;;;;5.57;94.80;98179.53;5066710;28;19916;-81
2021/03/14 08:18:48;;;;;;;;;;;;;;;5.69;94.77;98181.75;5066058;28;19921;-80
2021/03/14 08:21:20;;;;;;;;;;;;;;;5.40;96.28;98180.75;5066553;28;20015;-80
2021/03/14 08:23:45;;;;;;;;;;;;;;;6.08;95.11;98190.13;5066879;28;19927;-80
2021/03/14 08:26:21;;;;;;;;;;;;;;;5.41;95.13;98182.44;5066393;28;19916;-80
2021/03/14 08:28:54;;;;;;;;;;;;;;;5.95;95.46;98198.97;5065561;28;19923;-78
2021/03/14 08:31:38;;;;;;;;;;;;;;;6.12;94.81;98195.16;5048341;28;20056;-80
2021/03/14 08:34:04;;;;;;;;;;;;;;;5.30;96.68;98192.06;5047473;28;19920;-80
2021/03/14 08:36:34;;;;;;;;;;;;;;;5.95;94.82;98190.50;5066027;28;19973;-80
2021/03/14 08:38:59;;;;;;;;;;;;;;;5.64;97.46;98198.91;5067184;28;19921;-81
2021/03/14 08:41:24;;;;;;;;;;;;;;;5.87;95.66;98206.00;5064935;28;19912;-81
2021/03/14 08:43:51;;;;;;;;;;;;;;;5.92;95.51;98205.88;5065253;28;20474;-80
2021/03/14 08:46:16;;;;;;;;;;;;;;;5.86;95.43;98214.53;5064420;28;19916;-79
2021/03/14 08:48:42;;;;;;;;;;;;;;;5.75;96.32;98222.47;5064363;28;20794;-80
2021/03/14 08:51:08;;;;;;;;;;;;;;;5.80;96.16;98230.03;5064866;28;19970;-81
2021/03/14 08:53:34;;;;;;;;;;;;;;;5.85;95.97;98239.25;5064204;28;20289;-80
2021/03/14 08:56:00;;;;;;;;;;;;;;;5.46;96.96;98230.84;5065516;28;19917;-80
2021/03/14 08:58:25;;;;;;;;;;;;;;;5.54;95.60;98230.66;5065305;28;19928;-80
2021/03/14 09:01:10;;;;;;;;;;;;;;;5.50;98.27;98236.75;5065730;28;19916;-80
2021/03/14 09:03:42;;;;;;;;;;;;;;;5.50;98.93;98232.47;5066196;28;19912;-81
2021/03/14 09:06:16;;;;;;;;;;;;;;;5.61;99.38;98244.94;5066962;28;20390;-82
2021/03/14 09:09:01;;;;;;;;;;;;;;;5.17;100.00;98249.38;5059280;28;20346;-81
2021/03/14 09:11:42;;;;;;;;;;;;;;;5.33;100.00;98260.94;5064203;28;19917;-82
2021/03/14 09:14:26;;;;;;;;;;;;;;;4.68;100.00;98258.94;5065212;28;19912;-82
2021/03/14 09:16:53;;;;;;;;;;;;;;;4.84;100.00;98263.72;5066328;28;20283;-83
2021/03/14 09:19:27;;;;;;;;;;;;;;;5.40;100.00;98262.47;5048517;28;19920;-81
2021/03/14 09:21:53;;;;;;;;;;;;;;;4.98;100.00;98264.28;5064200;28;20370;-82
2021/03/14 09:24:25;;;;;;;;;;;;;;;4.73;100.00;98258.84;5064627;28;19927;-82
2021/03/14 09:26:55;;;;;;;;;;;;;;;5.36;100.00;98260.88;5047758;28;19920;-82
2021/03/14 09:29:59;;;;;;;;;;;;;;;5.98;96.88;98259.44;5063320;28;20023;-82
2021/03/14 09:32:37;;;;;;;;;;;;;;;5.88;99.41;98274.09;5025813;28;19916;-82
2021/03/14 09:35:21;;;;;;;;;;;;;;;5.58;100.00;98270.56;5043056;28;19916;-82
2021/03/14 09:37:46;;;;;;;;;;;;;;;6.10;99.72;98276.16;5057898;28;21006;-81
2021/03/14 09:40:18;;;;;;;;;;;;;;;6.28;98.21;98278.25;5065922;28;19955;-82
2021/03/14 09:42:44;;;;;;;;;;;;;;;6.52;98.37;98289.53;5064935;28;19916;-81
2021/03/14 09:45:10;;;;;;;;;;;;;;;5.95;98.60;98288.44;5064563;28;19967;-81
2021/03/14 09:47:35;;;;;;;;;;;;;;;6.87;98.16;98296.22;5065235;28;20385;-81
2021/03/14 09:50:01;;;;;;;;;;;;;;;6.02;100.00;98296.78;5063791;28;19920;-81
2021/03/14 09:52:27;;;;;;;;;;;;;;;6.28;100.00;98293.59;5063435;28;20373;-82
2021/03/14 09:54:52;;;;;;;;;;;;;;;6.86;100.00;98306.50;5063539;28;20018;-81
2021/03/14 09:57:20;;;;;;;;;;;;;;;5.85;100.00;98304.84;5046993;28;19920;-80
2021/03/14 09:59:45;;;;;;;;;;;;;;;5.91;100.00;98308.97;5062705;28;19924;-81
2021/03/14 10:02:10;;;;;;;;;;;;;;;5.94;98.01;98314.00;5062670;28;19922;-82
2021/03/14 10:04:46;;;;;;;;;;;;;;;6.60;98.05;98314.91;5063062;28;20378;-81
2021/03/14 10:07:21;;;;;;;;;;;;;;;6.41;96.75;98310.28;5078793;28;19916;-80
2021/03/14 10:09:46;;;;;;;;;;;;;;;6.64;96.27;98312.22;5062366;28;19919;-81
2021/03/14 10:12:12;;;;;;;;;;;;;;;6.10;98.83;98319.63;5063056;28;19913;-80
2021/03/14 10:14:37;;;;;;;;;;;;;;;5.39;99.56;98331.44;5062460;28;19916;-81
2021/03/14 10:17:02;;;;;;;;;;;;;;;5.75;98.61;98334.91;5045802;28;20007;-81
2021/03/14 10:19:28;;;;;;;;;;;;;;;6.59;96.34;98334.56;5060302;28;19958;-81
2021/03/14 10:21:53;;;;;;;;;;;;;;;6.15;96.71;98333.13;5061849;28;20286;-81
2021/03/14 10:24:18;;;;;;;;;;;;;;;6.00;97.51;98342.03;5063134;28;19923;-79
2021/03/14 10:26:53;;;;;;;;;;;;;;;6.38;98.20;98340.22;5064195;28;19928;-81
2021/03/14 10:29:19;;;;;;;;;;;;;;;6.46;95.50;98338.31;5061554;28;19944;-81
2021/03/14 10:31:45;;;;;;;;;;;;;;;6.14;95.77;98337.41;5063160;28;19924;-80
2021/03/14 10:34:10;;;;;;;;;;;;;;;6.48;97.21;98341.66;5062029;28;19912;-81
2021/03/14 10:36:36;;;;;;;;;;;;;;;5.87;95.58;98349.09;5063130;28;20915;-80
2021/03/14 10:39:02;;;;;;;;;;;;;;;6.49;95.31;98343.31;5063772;28;19982;-79
2021/03/14 10:41:27;;;;;;;;;;;;;;;6.77;95.59;98340.03;5064149;28;20383;-80
2021/03/14 10:43:56;;;;;;;;;;;;;;;6.47;96.22;98356.16;5062629;28;19923;-80
2021/03/14 10:46:34;;;;;;;;;;;;;;;6.90;95.46;98349.06;5062501;28;19927;-80
2021/03/14 10:49:03;;;;;;;;;;;;;;;6.38;99.27;98366.63;5063711;28;20266;-80
2021/03/14 10:51:32;;;;;;;;;;;;;;;6.08;97.75;98365.66;5062543;28;19963;-81
2021/03/14 10:54:04;;;;;;;;;;;;;;;6.53;98.00;98365.41;5062628;28;20297;-80
2021/03/14 10:56:34;;;;;;;;;;;;;;;6.63;97.13;98364.25;5062485;28;20386;-81
2021/03/14 10:58:59;;;;;;;;;;;;;;;6.13;98.72;98361.25;5062315;28;19924;-82
2021/03/14 11:01:35;;;;;;;;;;;;;;;6.22;99.93;98368.72;5061849;28;19943;-80
2021/03/14 11:04:01;;;;;;;;;;;;;;;6.85;98.97;98356.03;5047077;28;19917;-79
2021/03/14 11:06:28;;;;;;;;;;;;;;;6.55;97.29;98367.94;5063811;28;19924;-80
2021/03/14 11:09:08;;;;;;;;;;;;;;;6.03;100.00;98377.72;5063280;28;20481;-79
2021/03/14 11:11:41;;;;;;;;;;;;;;;6.57;99.12;98367.00;5061630;28;19912;-80
2021/03/14 11:14:25;;;;;;;;;;;;;;;5.90;98.64;98379.69;5061251;28;19917;-81
2021/03/14 11:17:04;;;;;;;;;;;;;;;6.35;99.42;98376.09;5063503;28;19916;-81
2021/03/14 11:19:29;;;;;;;;;;;;;;;6.11;100.00;98378.34;5063272;28;20019;-80
2021/03/14 11:21:55;;;;;;;;;;;;;;;5.66;100.00;98386.19;5045823;28;19975;-80
2021/03/14 11:24:20;;;;;;;;;;;;;;;6.67;97.76;98383.78;5061927;28;20522;-80
2021/03/14 11:26:46;;;;;;;;;;;;;;;5.78;100.00;98385.06;5044929;28;19916;-80
2021/03/14 11:29:11;;;;;;;;;;;;;;;5.82;100.00;98392.63;5056950;28;19936;-82
2021/03/14 11:31:39;;;;;;;;;;;;;;;5.53;100.00;98385.63;5062911;28;20289;-80
2021/03/14 11:34:05;;;;;;;;;;;;;;;6.11;100.00;98391.13;5063914;28;19920;-82
2021/03/14 11:36:30;;;;;;;;;;;;;;;5.41;100.00;98396.09;5061688;28;19913;-81
2021/03/14 11:38:55;;;;;;;;;;;;;;;5.34;100.00;98400.50;5062670;28;20438;-80
2021/03/14 11:41:21;;;;;;;;;;;;;;;6.00;100.00;98400.81;5059804;28;20016;-81
2021/03/14 11:43:46;;;;;;;;;;;;;;;5.50;100.00;98390.81;5059909;28;20581;-81
2021/03/14 11:46:15;;;;;;;;;;;;;;;5.50;100.00;98400.19;5061156;28;20389;-81
2021/03/14 11:48:43;;;;;;;;;;;;;;;5.62;100.00;98407.56;5065100;28;19927;-81
2021/03/14 11:51:08;;;;;;;;;;;;;;;5.62;100.00;98415.22;5049041;28;19913;-81
2021/03/14 11:53:33;;;;;;;;;;;;;;;5.82;100.00;98410.53;5064872;28;19969;-81
2021/03/14 11:55:59;;;;;;;;;;;;;;;5.94;100.00;98409.44;5048819;28;19912;-81
2021/03/14 11:58:25;;;;;;;;;;;;;;;5.82;100.00;98407.97;5064519;28;19924;-81
2021/03/14 12:00:50;;;;;;;;;;;;;;;5.84;100.00;98411.34;5065825;28;20277;-80
2021/03/14 12:03:16;;;;;;;;;;;;;;;5.92;100.00;98417.97;5064844;28;19970;-80
2021/03/14 12:05:41;;;;;;;;;;;;;;;5.80;100.00;98414.81;5064587;28;19920;-80
2021/03/14 12:08:06;;;;;;;;;;;;;;;5.87;100.00;98420.66;5065682;28;19991;-80
2021/03/14 12:10:32;;;;;;;;;;;;;;;5.86;100.00;98424.91;5063152;28;19920;-79
2021/03/14 12:12:57;;;;;;;;;;;;;;;5.91;100.00;98421.41;5064229;28;19969;-79
2021/03/14 12:15:23;;;;;;;;;;;;;;;5.76;100.00;98425.97;5063287;28;19917;-79
2021/03/14 12:17:48;;;;;;;;;;;;;;;5.77;100.00;98432.78;5064448;28;19924;-80
2021/03/14 12:20:14;;;;;;;;;;;;;;;5.79;100.00;98428.50;5033962;28;20908;-81
2021/03/14 12:22:39;;;;;;;;;;;;;;;5.87;100.00;98426.59;5065725;28;20369;-79
2021/03/14 12:25:05;;;;;;;;;;;;;;;6.70;100.00;98416.97;5064566;28;20969;-79
2021/03/14 12:27:31;;;;;;;;;;;;;;;6.20;100.00;98421.63;5064343;28;19920;-81
2021/03/14 12:29:56;;;;;;;;;;;;;;;6.89;100.00;98404.53;5057421;28;19986;-79
2021/03/14 12:32:21;;;;;;;;;;;;;;;7.47;98.86;98402.06;5058129;28;19917;-80
2021/03/14 12:34:47;;;;;;;;;;;;;;;6.66;99.50;98411.94;5064564;28;19959;-81